createdAt,value
2022-08-30T00:03:25.328Z,100677.88
2022-08-30T00:10:12.965Z,100689.91
2022-08-30T00:17:01.004Z,100637.53
2022-08-30T00:23:46.567Z,100682.19
2022-08-30T00:30:32.600Z,100677.25
2022-08-30T00:37:21.923Z,100669.91
2022-08-30T00:44:08.454Z,100676.66
2022-08-30T00:50:59.198Z,100614.84
2022-08-30T00:57:50.545Z,100693.28
2022-08-30T01:04:37.593Z,100629.81
2022-08-30T01:11:26.965Z,100615.63
2022-08-30T01:18:17.479Z,100690.50
2022-08-30T01:25:08.224Z,100695.59
2022-08-30T01:31:54.823Z,100695.22
2022-08-30T01:38:49.000Z,100681.91
2022-08-30T01:45:37.541Z,100679.84
2022-08-30T01:52:23.337Z,100676.63
2022-08-30T01:59:09.632Z,100670.16
2022-08-30T02:05:57.701Z,100675.00
2022-08-30T02:12:43.595Z,100681.78
2022-08-30T02:19:28.887Z,100678.22
2022-08-30T02:26:17.647Z,100679.03
2022-08-30T02:33:03.692Z,100675.81
2022-08-30T02:39:49.170Z,100672.16
2022-08-30T03:00:26.086Z,100663.41
2022-08-30T03:07:12.795Z,100651.94
2022-08-30T03:13:58.379Z,100671.53
2022-08-30T03:20:54.072Z,100655.66
2022-08-30T03:27:40.965Z,100651.97
2022-08-30T03:34:27.817Z,100656.53
2022-08-30T03:41:17.285Z,100662.38
2022-08-30T03:48:03.488Z,100660.78
2022-08-30T03:54:49.269Z,100668.63
2022-08-30T04:01:37.318Z,100660.53
2022-08-30T04:08:23.238Z,100671.19
2022-08-30T04:15:11.300Z,100663.88
2022-08-30T04:21:59.643Z,100603.50
2022-08-30T04:28:45.186Z,100677.16
2022-08-30T04:35:31.931Z,100681.00
2022-08-30T04:42:20.513Z,100672.56
2022-08-30T04:49:08.189Z,100669.78
2022-08-30T04:55:54.097Z,100666.97
2022-08-30T05:02:43.743Z,100669.72
2022-08-30T05:09:29.259Z,100684.78
2022-08-30T05:16:18.108Z,100692.66
2022-08-30T05:23:07.143Z,100686.06
2022-08-30T05:29:52.622Z,100667.13
2022-08-30T05:36:41.716Z,100700.56
2022-08-30T05:43:30.069Z,100710.47
2022-08-30T05:50:15.631Z,100722.66
2022-08-30T05:57:01.146Z,100725.22
2022-08-30T06:03:49.992Z,100705.81
2022-08-30T06:10:35.396Z,100715.50
2022-08-30T06:17:21.076Z,100659.28
2022-08-30T06:24:13.684Z,100716.31
2022-08-30T06:30:59.253Z,100718.38
2022-08-30T06:37:44.752Z,100709.53
2022-08-30T06:44:32.944Z,100711.75
2022-08-30T06:51:22.016Z,100722.22
2022-08-30T06:58:08.614Z,100728.34
2022-08-30T07:04:56.659Z,100718.22
2022-08-30T07:11:42.173Z,100727.66
2022-08-30T07:18:49.260Z,100722.69
2022-08-30T07:25:38.618Z,100720.75
2022-08-30T07:32:24.128Z,100736.47
2022-08-30T07:39:11.052Z,100737.00
2022-08-30T07:46:00.456Z,100728.72
2022-08-30T07:52:46.028Z,100744.91
2022-08-30T07:59:34.213Z,100736.69
2022-08-30T08:06:27.669Z,100730.53
2022-08-30T08:13:18.964Z,100731.09
2022-08-30T08:20:08.007Z,100726.91
2022-08-30T08:26:56.537Z,100734.59
2022-08-30T08:33:41.996Z,100729.16
2022-08-30T08:40:27.869Z,100722.03
2022-08-30T08:47:25.024Z,100725.78
2022-08-30T08:54:18.199Z,100726.22
2022-08-30T09:01:05.258Z,100681.56
2022-08-30T09:08:00.882Z,100717.84
2022-08-30T09:14:51.611Z,100711.91
2022-08-30T09:21:41.317Z,100733.59
2022-08-30T09:28:32.737Z,100725.94
2022-08-30T09:35:25.942Z,100709.03
2022-08-30T09:42:23.795Z,100691.69
2022-08-30T09:49:32.803Z,100700.03
2022-08-30T09:56:30.657Z,100697.09
2022-08-30T10:03:36.314Z,100690.09
2022-08-30T10:10:41.781Z,100676.22
2022-08-30T10:17:44.890Z,100670.31
2022-08-30T10:24:36.259Z,100661.25
2022-08-30T10:31:35.169Z,100555.94
2022-08-30T10:38:27.422Z,100655.59
2022-08-30T10:45:18.877Z,100650.47
2022-08-30T10:59:29.996Z,100644.00
2022-08-30T11:06:27.439Z,100613.13
2022-08-30T11:13:23.075Z,100629.50
2022-08-30T11:20:26.418Z,100604.03
2022-08-30T11:27:12.791Z,100628.69
2022-08-30T11:34:02.780Z,100598.88
2022-08-30T11:40:55.088Z,100617.59
2022-08-30T11:47:45.291Z,100615.97
2022-08-30T11:54:43.479Z,100614.31
2022-08-30T12:01:51.040Z,100494.47
2022-08-30T12:09:02.350Z,100602.16
2022-08-30T12:16:07.808Z,100588.56
2022-08-30T12:22:56.865Z,100587.59
2022-08-30T12:29:54.843Z,100588.78
2022-08-30T12:36:53.748Z,100584.09
2022-08-30T12:43:42.457Z,100578.53
2022-08-30T12:50:33.328Z,100570.13
2022-08-30T12:57:40.186Z,100563.09
2022-08-30T13:04:31.676Z,100557.59
2022-08-30T13:11:29.777Z,100552.56
2022-08-30T13:18:27.585Z,100551.44
2022-08-30T13:25:14.928Z,100543.44
2022-08-30T13:32:00.971Z,100530.91
2022-08-30T13:38:50.136Z,100516.31
2022-08-30T13:45:43.202Z,100523.34
2022-08-30T13:52:28.908Z,100516.50
2022-08-30T13:59:18.222Z,100505.03
2022-08-30T14:06:29.472Z,100495.16
2022-08-30T14:13:11.885Z,100475.19
2022-08-30T14:20:02.504Z,100480.91
2022-08-30T14:26:51.386Z,100480.69
2022-08-30T14:33:36.920Z,100469.75
2022-08-30T14:40:25.082Z,100473.53
2022-08-30T14:47:11.317Z,100470.56
2022-08-30T14:53:57.803Z,100464.63
2022-08-30T15:00:45.942Z,100451.22
2022-08-30T15:07:31.470Z,100450.22
2022-08-30T15:14:17.339Z,100441.50
2022-08-30T15:21:05.461Z,100441.81
2022-08-30T15:27:51.871Z,100407.25
2022-08-30T15:34:37.737Z,100422.38
2022-08-30T15:41:26.940Z,100423.03
2022-08-30T15:48:14.357Z,100429.97
2022-08-30T15:55:00.020Z,100422.81
2022-08-30T16:01:49.472Z,100419.63
2022-08-30T16:08:35.480Z,100428.47
2022-08-30T16:15:21.034Z,100426.22
2022-08-30T16:22:11.308Z,100420.66
2022-08-30T16:28:58.260Z,100412.56
2022-08-30T16:35:44.111Z,100408.94
2022-08-30T16:42:32.732Z,100406.78
2022-08-30T16:49:18.431Z,100412.56
2022-08-30T16:56:09.733Z,100409.72
2022-08-30T17:02:59.212Z,100402.41
2022-08-30T17:09:45.184Z,100420.00
2022-08-30T17:16:30.773Z,100422.69
2022-08-30T17:23:19.505Z,100403.13
2022-08-30T17:30:08.771Z,100412.47
2022-08-30T17:36:57.241Z,100424.47
2022-08-30T17:43:45.516Z,100408.44
2022-08-30T17:50:33.250Z,100397.59
2022-08-30T17:57:19.224Z,100450.94
2022-08-30T18:04:08.472Z,100458.81
2022-08-30T18:10:54.023Z,100472.16
2022-08-30T18:17:41.245Z,100477.28
2022-08-30T18:24:29.897Z,100391.66
2022-08-30T18:31:15.606Z,100472.16
2022-08-30T18:38:01.812Z,100473.69
2022-08-30T18:44:50.148Z,100468.38
2022-08-30T18:51:35.701Z,100490.22
2022-08-30T18:58:21.958Z,100478.31
2022-08-30T19:05:12.041Z,100425.06
2022-08-30T19:11:58.075Z,100495.81
2022-08-30T19:18:44.100Z,100498.81
2022-08-30T19:25:33.672Z,100440.41
2022-08-30T19:32:19.241Z,100511.59
2022-08-30T19:39:05.117Z,100514.41
2022-08-30T19:46:00.858Z,100508.31
2022-08-30T19:52:53.730Z,100516.19
2022-08-30T19:59:44.108Z,100516.78
2022-08-30T20:06:33.666Z,100533.06
2022-08-30T20:13:21.629Z,100534.78
2022-08-30T20:20:13.100Z,100531.59
2022-08-30T20:27:03.555Z,100538.09
2022-08-30T20:33:49.062Z,100545.78
2022-08-30T20:40:34.851Z,100546.25
2022-08-30T20:47:23.668Z,100533.91
2022-08-30T20:54:09.930Z,100528.06
2022-08-30T21:00:57.121Z,100529.88
2022-08-30T21:07:47.208Z,100529.25
2022-08-30T21:14:33.267Z,100534.59
2022-08-30T21:21:22.646Z,100535.50
2022-08-30T21:28:11.330Z,100531.53
2022-08-30T21:35:09.361Z,100536.03
2022-08-30T21:41:59.599Z,100540.94
2022-08-30T21:48:49.105Z,100535.38
2022-08-30T21:55:34.656Z,100547.47
2022-08-30T22:02:20.497Z,100555.88
2022-08-30T22:09:13.583Z,100546.28
2022-08-30T22:15:59.101Z,100561.53
2022-08-30T22:22:44.732Z,100564.34
2022-08-30T22:29:33.051Z,100555.97
2022-08-30T22:36:21.926Z,100567.66
2022-08-30T22:43:07.625Z,100551.59
2022-08-30T22:49:55.820Z,100545.25
2022-08-30T22:56:42.868Z,100550.91
2022-08-30T23:03:28.415Z,100574.66
2022-08-30T23:10:17.842Z,100516.03
2022-08-30T23:17:03.484Z,100583.91
2022-08-30T23:24:01.777Z,100581.91
2022-08-30T23:31:02.325Z,100575.88
2022-08-30T23:38:00.277Z,100587.91
2022-08-30T23:44:58.253Z,100584.25
2022-08-30T23:51:58.875Z,100583.88
2022-08-30T23:58:56.904Z,100592.28
